Main page
METAR-TAF:

METAR-TAF

Airports :

East Midlands Airport

East Midlands, England

latitude: 52-50N, longitude: 001-20W, elevation: 94 m

Current weather observation

The report was made 26 minutes ago, at 22:50 UTC
Wind 5 kt from the East/Northeast
Temperature 14°C
Humidity 63%
Pressure 1002 hPa
Visibility 10 km or more
no clouds below 1500 m and no cumulonimbus

METAR: EGNX 222250Z 07005KT CAVOK 14/07 Q1002

Time: 00:16 (23:16 UTC)

Forecast

The report was made 6 hours and 23 minutes ago, at 16:53 UTC
Forecast valid from 22 at 18 UTC to 23 at 18 UTC
Wind 9 kt from the East
Visibility 10 km or more
no clouds below 1500 m and no cumulonimbus
Probability 30% :
Temporary
from 23 at 02 UTC to 23 at 07 UTC
Visibility: 9000 m

TAF: EGNX 221653Z 2218/2318 08009KT CAVOK PROB30 TEMPO 2302/2307 9000

Weather observations and forecasts of more than 4000 airports (METAR and TAF reports).

The available stations are represented by yellow and red dots on the map.

Hover mouse over dot to see the name of the station.

Then click to see weather observations and forecasts.

To change the map : click on the green buttons with a black cross to zoom in, on the green button with a dash to zoom out, or on the green arrows for adjacent maps.


METAR-TAF: